sensor_id;sensor_type;location;lat;lon;timestamp;P1;durP1;ratioP1;P2;durP2;ratioP2
79478;SDS011;68943;49.472;17.970;2024-03-07T00:01:54;5.82;;;3.30;;
79478;SDS011;68943;49.472;17.970;2024-03-07T00:04:20;4.60;;;2.95;;
79478;SDS011;68943;49.472;17.970;2024-03-07T00:06:47;5.68;;;2.83;;
79478;SDS011;68943;49.472;17.970;2024-03-07T00:09:13;5.68;;;3.40;;
79478;SDS011;68943;49.472;17.970;2024-03-07T00:11:40;4.80;;;2.20;;
79478;SDS011;68943;49.472;17.970;2024-03-07T00:14:06;6.65;;;4.03;;
79478;SDS011;68943;49.472;17.970;2024-03-07T00:16:33;2.70;;;1.55;;
79478;SDS011;68943;49.472;17.970;2024-03-07T00:18:59;6.65;;;3.90;;
79478;SDS011;68943;49.472;17.970;2024-03-07T00:21:25;7.95;;;4.88;;
79478;SDS011;68943;49.472;17.970;2024-03-07T00:23:51;9.25;;;4.10;;
79478;SDS011;68943;49.472;17.970;2024-03-07T00:26:19;6.07;;;3.55;;
79478;SDS011;68943;49.472;17.970;2024-03-07T00:28:45;6.65;;;4.10;;
79478;SDS011;68943;49.472;17.970;2024-03-07T00:31:11;6.45;;;4.05;;
79478;SDS011;68943;49.472;17.970;2024-03-07T00:33:37;5.05;;;3.00;;
79478;SDS011;68943;49.472;17.970;2024-03-07T00:36:03;9.50;;;4.78;;
79478;SDS011;68943;49.472;17.970;2024-03-07T00:38:30;6.43;;;4.05;;
79478;SDS011;68943;49.472;17.970;2024-03-07T00:40:56;7.25;;;4.07;;
79478;SDS011;68943;49.472;17.970;2024-03-07T00:43:24;8.38;;;5.57;;
79478;SDS011;68943;49.472;17.970;2024-03-07T00:45:50;11.02;;;5.25;;
79478;SDS011;68943;49.472;17.970;2024-03-07T00:48:16;9.18;;;5.53;;
79478;SDS011;68943;49.472;17.970;2024-03-07T00:50:43;9.07;;;5.55;;
79478;SDS011;68943;49.472;17.970;2024-03-07T00:53:09;7.50;;;4.40;;
79478;SDS011;68943;49.472;17.970;2024-03-07T00:55:35;8.30;;;5.32;;
79478;SDS011;68943;49.472;17.970;2024-03-07T00:58:01;8.13;;;4.75;;
79478;SDS011;68943;49.472;17.970;2024-03-07T01:00:28;9.48;;;5.32;;
79478;SDS011;68943;49.472;17.970;2024-03-07T01:02:54;8.93;;;5.50;;
79478;SDS011;68943;49.472;17.970;2024-03-07T01:05:22;8.88;;;5.55;;
79478;SDS011;68943;49.472;17.970;2024-03-07T01:07:48;10.60;;;5.30;;
79478;SDS011;68943;49.472;17.970;2024-03-07T01:10:14;7.80;;;5.07;;
79478;SDS011;68943;49.472;17.970;2024-03-07T01:12:41;8.00;;;5.20;;
79478;SDS011;68943;49.472;17.970;2024-03-07T01:15:08;5.85;;;3.53;;
79478;SDS011;68943;49.472;17.970;2024-03-07T01:17:36;9.80;;;5.57;;
79478;SDS011;68943;49.472;17.970;2024-03-07T01:20:02;8.23;;;4.63;;
79478;SDS011;68943;49.472;17.970;2024-03-07T01:22:29;8.98;;;5.50;;
79478;SDS011;68943;49.472;17.970;2024-03-07T01:24:55;9.73;;;5.38;;
79478;SDS011;68943;49.472;17.970;2024-03-07T01:27:21;8.70;;;5.93;;
79478;SDS011;68943;49.472;17.970;2024-03-07T01:29:49;9.15;;;5.15;;
79478;SDS011;68943;49.472;17.970;2024-03-07T01:32:15;9.40;;;5.93;;
79478;SDS011;68943;49.472;17.970;2024-03-07T01:34:41;9.85;;;6.40;;
79478;SDS011;68943;49.472;17.970;2024-03-07T01:37:07;8.52;;;5.72;;
79478;SDS011;68943;49.472;17.970;2024-03-07T01:39:33;10.23;;;6.72;;
79478;SDS011;68943;49.472;17.970;2024-03-07T01:41:59;11.00;;;5.25;;
79478;SDS011;68943;49.472;17.970;2024-03-07T01:44:25;7.40;;;3.55;;
79478;SDS011;68943;49.472;17.970;2024-03-07T01:46:52;10.80;;;5.60;;
79478;SDS011;68943;49.472;17.970;2024-03-07T01:49:18;8.55;;;5.07;;
79478;SDS011;68943;49.472;17.970;2024-03-07T01:51:44;9.10;;;5.55;;
79478;SDS011;68943;49.472;17.970;2024-03-07T01:54:10;10.65;;;5.32;;
79478;SDS011;68943;49.472;17.970;2024-03-07T01:56:36;11.32;;;7.07;;
79478;SDS011;68943;49.472;17.970;2024-03-07T01:59:03;10.50;;;5.95;;
79478;SDS011;68943;49.472;17.970;2024-03-07T02:01:30;11.38;;;5.78;;
79478;SDS011;68943;49.472;17.970;2024-03-07T02:03:56;11.82;;;6.20;;
79478;SDS011;68943;49.472;17.970;2024-03-07T02:06:23;11.63;;;6.40;;
79478;SDS011;68943;49.472;17.970;2024-03-07T02:08:49;9.63;;;4.88;;
79478;SDS011;68943;49.472;17.970;2024-03-07T02:11:15;10.75;;;6.25;;
79478;SDS011;68943;49.472;17.970;2024-03-07T02:13:41;12.25;;;5.85;;
79478;SDS011;68943;49.472;17.970;2024-03-07T02:16:07;12.63;;;6.90;;
79478;SDS011;68943;49.472;17.970;2024-03-07T02:18:34;8.13;;;4.47;;
79478;SDS011;68943;49.472;17.970;2024-03-07T02:21:05;10.65;;;6.18;;
79478;SDS011;68943;49.472;17.970;2024-03-07T02:23:31;11.88;;;6.18;;
79478;SDS011;68943;49.472;17.970;2024-03-07T02:25:57;7.25;;;4.43;;
79478;SDS011;68943;49.472;17.970;2024-03-07T02:28:24;11.35;;;6.15;;
79478;SDS011;68943;49.472;17.970;2024-03-07T02:30:50;11.40;;;6.82;;
79478;SDS011;68943;49.472;17.970;2024-03-07T02:33:16;11.00;;;5.88;;
79478;SDS011;68943;49.472;17.970;2024-03-07T02:35:42;7.68;;;4.68;;
79478;SDS011;68943;49.472;17.970;2024-03-07T02:38:08;9.20;;;4.63;;
79478;SDS011;68943;49.472;17.970;2024-03-07T02:40:35;11.90;;;6.32;;
79478;SDS011;68943;49.472;17.970;2024-03-07T02:43:01;10.50;;;5.75;;
79478;SDS011;68943;49.472;17.970;2024-03-07T02:45:30;13.63;;;6.43;;
79478;SDS011;68943;49.472;17.970;2024-03-07T02:47:56;13.85;;;6.22;;
79478;SDS011;68943;49.472;17.970;2024-03-07T02:50:22;11.10;;;6.28;;
79478;SDS011;68943;49.472;17.970;2024-03-07T02:52:49;7.45;;;4.03;;
79478;SDS011;68943;49.472;17.970;2024-03-07T02:55:15;7.47;;;4.28;;
79478;SDS011;68943;49.472;17.970;2024-03-07T02:57:41;14.18;;;7.35;;
79478;SDS011;68943;49.472;17.970;2024-03-07T03:00:08;13.10;;;8.05;;
79478;SDS011;68943;49.472;17.970;2024-03-07T03:02:51;7.20;;;4.40;;
79478;SDS011;68943;49.472;17.970;2024-03-07T03:05:17;14.73;;;6.95;;
79478;SDS011;68943;49.472;17.970;2024-03-07T03:07:44;11.45;;;5.78;;
79478;SDS011;68943;49.472;17.970;2024-03-07T03:10:19;9.30;;;5.07;;
79478;SDS011;68943;49.472;17.970;2024-03-07T03:12:45;10.77;;;6.32;;
79478;SDS011;68943;49.472;17.970;2024-03-07T03:15:12;10.45;;;5.28;;
79478;SDS011;68943;49.472;17.970;2024-03-07T03:17:40;13.27;;;6.28;;
79478;SDS011;68943;49.472;17.970;2024-03-07T03:20:06;9.27;;;5.47;;
79478;SDS011;68943;49.472;17.970;2024-03-07T03:22:48;11.55;;;5.03;;
79478;SDS011;68943;49.472;17.970;2024-03-07T03:25:15;11.90;;;5.03;;
79478;SDS011;68943;49.472;17.970;2024-03-07T03:27:41;11.93;;;6.80;;
79478;SDS011;68943;49.472;17.970;2024-03-07T03:30:07;12.10;;;4.50;;
79478;SDS011;68943;49.472;17.970;2024-03-07T03:32:33;16.65;;;7.65;;
79478;SDS011;68943;49.472;17.970;2024-03-07T03:35:01;14.45;;;6.65;;
79478;SDS011;68943;49.472;17.970;2024-03-07T03:37:28;12.00;;;6.40;;
79478;SDS011;68943;49.472;17.970;2024-03-07T03:39:54;11.40;;;6.07;;
79478;SDS011;68943;49.472;17.970;2024-03-07T03:42:20;12.15;;;6.03;;
79478;SDS011;68943;49.472;17.970;2024-03-07T03:44:47;15.80;;;7.32;;
79478;SDS011;68943;49.472;17.970;2024-03-07T03:47:13;13.43;;;7.35;;
79478;SDS011;68943;49.472;17.970;2024-03-07T03:49:39;15.75;;;8.40;;
79478;SDS011;68943;49.472;17.970;2024-03-07T03:52:05;18.30;;;8.43;;
79478;SDS011;68943;49.472;17.970;2024-03-07T03:54:31;12.70;;;7.43;;
79478;SDS011;68943;49.472;17.970;2024-03-07T03:56:57;13.57;;;7.10;;
79478;SDS011;68943;49.472;17.970;2024-03-07T03:59:23;14.80;;;8.23;;
79478;SDS011;68943;49.472;17.970;2024-03-07T04:01:50;12.13;;;5.72;;
79478;SDS011;68943;49.472;17.970;2024-03-07T04:04:16;13.52;;;6.70;;
79478;SDS011;68943;49.472;17.970;2024-03-07T04:06:43;14.93;;;7.00;;
79478;SDS011;68943;49.472;17.970;2024-03-07T04:09:09;19.95;;;8.50;;
79478;SDS011;68943;49.472;17.970;2024-03-07T04:11:35;17.85;;;8.05;;
79478;SDS011;68943;49.472;17.970;2024-03-07T04:14:02;15.02;;;6.95;;
79478;SDS011;68943;49.472;17.970;2024-03-07T04:16:28;13.30;;;7.30;;
79478;SDS011;68943;49.472;17.970;2024-03-07T04:18:54;11.43;;;7.20;;
79478;SDS011;68943;49.472;17.970;2024-03-07T04:21:20;14.90;;;6.97;;
79478;SDS011;68943;49.472;17.970;2024-03-07T04:23:46;13.63;;;7.07;;
79478;SDS011;68943;49.472;17.970;2024-03-07T04:26:12;13.70;;;7.15;;
79478;SDS011;68943;49.472;17.970;2024-03-07T04:28:38;14.98;;;9.40;;
79478;SDS011;68943;49.472;17.970;2024-03-07T04:31:04;14.18;;;7.40;;
79478;SDS011;68943;49.472;17.970;2024-03-07T04:33:30;13.45;;;5.38;;
79478;SDS011;68943;49.472;17.970;2024-03-07T04:35:57;16.60;;;7.95;;
79478;SDS011;68943;49.472;17.970;2024-03-07T04:38:23;18.85;;;8.77;;
79478;SDS011;68943;49.472;17.970;2024-03-07T04:40:49;15.98;;;8.82;;
79478;SDS011;68943;49.472;17.970;2024-03-07T04:43:15;14.25;;;7.80;;
79478;SDS011;68943;49.472;17.970;2024-03-07T04:45:45;14.77;;;7.97;;
79478;SDS011;68943;49.472;17.970;2024-03-07T04:48:11;13.85;;;7.60;;
79478;SDS011;68943;49.472;17.970;2024-03-07T04:50:37;10.50;;;5.60;;
79478;SDS011;68943;49.472;17.970;2024-03-07T04:53:04;13.07;;;8.20;;
79478;SDS011;68943;49.472;17.970;2024-03-07T04:55:31;14.90;;;7.60;;
79478;SDS011;68943;49.472;17.970;2024-03-07T04:57:57;13.32;;;6.57;;
79478;SDS011;68943;49.472;17.970;2024-03-07T05:00:23;16.88;;;7.85;;
79478;SDS011;68943;49.472;17.970;2024-03-07T05:02:49;9.85;;;6.75;;
79478;SDS011;68943;49.472;17.970;2024-03-07T05:05:15;12.35;;;6.55;;
79478;SDS011;68943;49.472;17.970;2024-03-07T05:07:50;14.90;;;5.65;;
79478;SDS011;68943;49.472;17.970;2024-03-07T05:10:16;12.88;;;7.53;;
79478;SDS011;68943;49.472;17.970;2024-03-07T05:12:43;13.40;;;7.53;;
79478;SDS011;68943;49.472;17.970;2024-03-07T05:15:09;16.20;;;7.57;;
79478;SDS011;68943;49.472;17.970;2024-03-07T05:17:35;14.15;;;6.75;;
79478;SDS011;68943;49.472;17.970;2024-03-07T05:20:03;10.18;;;5.38;;
79478;SDS011;68943;49.472;17.970;2024-03-07T05:22:35;14.82;;;7.85;;
79478;SDS011;68943;49.472;17.970;2024-03-07T05:25:04;13.02;;;6.00;;
79478;SDS011;68943;49.472;17.970;2024-03-07T05:27:30;14.23;;;7.28;;
79478;SDS011;68943;49.472;17.970;2024-03-07T05:29:56;16.75;;;7.68;;
79478;SDS011;68943;49.472;17.970;2024-03-07T05:32:23;17.17;;;8.68;;
79478;SDS011;68943;49.472;17.970;2024-03-07T05:34:50;13.55;;;6.80;;
79478;SDS011;68943;49.472;17.970;2024-03-07T05:37:18;17.02;;;7.82;;
79478;SDS011;68943;49.472;17.970;2024-03-07T05:39:46;18.10;;;8.80;;
79478;SDS011;68943;49.472;17.970;2024-03-07T05:42:12;20.38;;;10.40;;
79478;SDS011;68943;49.472;17.970;2024-03-07T05:44:40;20.27;;;9.98;;
79478;SDS011;68943;49.472;17.970;2024-03-07T05:47:06;22.60;;;12.00;;
79478;SDS011;68943;49.472;17.970;2024-03-07T05:49:33;20.25;;;10.20;;
79478;SDS011;68943;49.472;17.970;2024-03-07T05:51:59;22.00;;;11.05;;
79478;SDS011;68943;49.472;17.970;2024-03-07T05:54:25;20.45;;;10.15;;
79478;SDS011;68943;49.472;17.970;2024-03-07T05:56:51;23.58;;;10.27;;
79478;SDS011;68943;49.472;17.970;2024-03-07T05:59:17;29.52;;;11.52;;
79478;SDS011;68943;49.472;17.970;2024-03-07T06:01:43;28.90;;;13.55;;
79478;SDS011;68943;49.472;17.970;2024-03-07T06:04:09;15.82;;;7.60;;
79478;SDS011;68943;49.472;17.970;2024-03-07T06:06:36;21.33;;;9.15;;
79478;SDS011;68943;49.472;17.970;2024-03-07T06:09:07;28.20;;;11.98;;
79478;SDS011;68943;49.472;17.970;2024-03-07T06:11:36;24.92;;;12.68;;
79478;SDS011;68943;49.472;17.970;2024-03-07T06:14:02;24.65;;;11.38;;
79478;SDS011;68943;49.472;17.970;2024-03-07T06:16:29;19.20;;;9.85;;
79478;SDS011;68943;49.472;17.970;2024-03-07T06:18:58;18.75;;;10.05;;
79478;SDS011;68943;49.472;17.970;2024-03-07T06:21:24;21.70;;;9.90;;
79478;SDS011;68943;49.472;17.970;2024-03-07T06:23:50;15.95;;;7.80;;
79478;SDS011;68943;49.472;17.970;2024-03-07T06:26:24;17.48;;;7.95;;
79478;SDS011;68943;49.472;17.970;2024-03-07T06:29:02;18.65;;;9.57;;
79478;SDS011;68943;49.472;17.970;2024-03-07T06:31:30;14.68;;;6.32;;
79478;SDS011;68943;49.472;17.970;2024-03-07T06:33:56;27.48;;;10.77;;
79478;SDS011;68943;49.472;17.970;2024-03-07T06:36:22;25.10;;;11.45;;
79478;SDS011;68943;49.472;17.970;2024-03-07T06:38:50;20.25;;;10.07;;
79478;SDS011;68943;49.472;17.970;2024-03-07T06:41:16;21.08;;;10.60;;
79478;SDS011;68943;49.472;17.970;2024-03-07T06:43:45;24.13;;;10.90;;
79478;SDS011;68943;49.472;17.970;2024-03-07T06:46:11;18.35;;;9.07;;
79478;SDS011;68943;49.472;17.970;2024-03-07T06:48:40;26.38;;;11.18;;
79478;SDS011;68943;49.472;17.970;2024-03-07T06:51:06;21.55;;;11.10;;
79478;SDS011;68943;49.472;17.970;2024-03-07T06:53:33;23.85;;;11.88;;
79478;SDS011;68943;49.472;17.970;2024-03-07T06:55:59;23.05;;;11.27;;
79478;SDS011;68943;49.472;17.970;2024-03-07T06:58:26;22.38;;;9.70;;
79478;SDS011;68943;49.472;17.970;2024-03-07T07:00:52;25.15;;;11.45;;
79478;SDS011;68943;49.472;17.970;2024-03-07T07:03:23;17.58;;;9.15;;
79478;SDS011;68943;49.472;17.970;2024-03-07T07:05:49;25.45;;;9.82;;
79478;SDS011;68943;49.472;17.970;2024-03-07T07:08:15;24.42;;;10.32;;
79478;SDS011;68943;49.472;17.970;2024-03-07T07:10:42;14.48;;;7.43;;
79478;SDS011;68943;49.472;17.970;2024-03-07T07:13:09;25.48;;;11.77;;
79478;SDS011;68943;49.472;17.970;2024-03-07T07:15:35;35.45;;;13.15;;
79478;SDS011;68943;49.472;17.970;2024-03-07T07:18:02;23.55;;;10.98;;
79478;SDS011;68943;49.472;17.970;2024-03-07T07:20:28;17.10;;;8.13;;
79478;SDS011;68943;49.472;17.970;2024-03-07T07:22:54;29.83;;;13.90;;
79478;SDS011;68943;49.472;17.970;2024-03-07T07:25:22;23.27;;;10.43;;
79478;SDS011;68943;49.472;17.970;2024-03-07T07:27:50;24.10;;;10.38;;
79478;SDS011;68943;49.472;17.970;2024-03-07T07:30:19;27.33;;;13.13;;
79478;SDS011;68943;49.472;17.970;2024-03-07T07:32:49;26.58;;;12.48;;
79478;SDS011;68943;49.472;17.970;2024-03-07T07:35:16;29.98;;;13.82;;
79478;SDS011;68943;49.472;17.970;2024-03-07T07:37:43;30.23;;;14.05;;
79478;SDS011;68943;49.472;17.970;2024-03-07T07:40:12;33.60;;;13.63;;
79478;SDS011;68943;49.472;17.970;2024-03-07T07:42:40;31.33;;;12.55;;
79478;SDS011;68943;49.472;17.970;2024-03-07T07:45:07;25.30;;;11.55;;
79478;SDS011;68943;49.472;17.970;2024-03-07T07:47:38;29.63;;;13.50;;
79478;SDS011;68943;49.472;17.970;2024-03-07T07:50:09;33.78;;;12.77;;
79478;SDS011;68943;49.472;17.970;2024-03-07T07:52:49;33.60;;;14.13;;
79478;SDS011;68943;49.472;17.970;2024-03-07T07:55:18;22.65;;;10.70;;
79478;SDS011;68943;49.472;17.970;2024-03-07T07:57:45;29.27;;;14.40;;
79478;SDS011;68943;49.472;17.970;2024-03-07T08:02:37;30.98;;;15.02;;
79478;SDS011;68943;49.472;17.970;2024-03-07T08:05:03;27.48;;;13.02;;
79478;SDS011;68943;49.472;17.970;2024-03-07T08:07:30;26.25;;;12.30;;
79478;SDS011;68943;49.472;17.970;2024-03-07T08:09:56;20.65;;;9.63;;
79478;SDS011;68943;49.472;17.970;2024-03-07T08:12:22;23.52;;;9.90;;
79478;SDS011;68943;49.472;17.970;2024-03-07T08:14:49;19.73;;;9.55;;
79478;SDS011;68943;49.472;17.970;2024-03-07T08:17:15;29.55;;;14.75;;
79478;SDS011;68943;49.472;17.970;2024-03-07T08:19:42;33.70;;;14.05;;
79478;SDS011;68943;49.472;17.970;2024-03-07T08:22:08;24.98;;;11.93;;
79478;SDS011;68943;49.472;17.970;2024-03-07T08:24:35;26.73;;;9.57;;
79478;SDS011;68943;49.472;17.970;2024-03-07T08:27:01;28.27;;;13.23;;
79478;SDS011;68943;49.472;17.970;2024-03-07T08:29:27;27.98;;;13.55;;
79478;SDS011;68943;49.472;17.970;2024-03-07T08:31:53;26.80;;;12.05;;
79478;SDS011;68943;49.472;17.970;2024-03-07T08:34:20;21.88;;;10.75;;
79478;SDS011;68943;49.472;17.970;2024-03-07T08:36:46;25.70;;;14.18;;
79478;SDS011;68943;49.472;17.970;2024-03-07T08:39:12;28.23;;;11.88;;
79478;SDS011;68943;49.472;17.970;2024-03-07T08:41:39;23.98;;;10.23;;
79478;SDS011;68943;49.472;17.970;2024-03-07T08:44:07;24.38;;;11.02;;
79478;SDS011;68943;49.472;17.970;2024-03-07T08:46:35;19.45;;;8.88;;
79478;SDS011;68943;49.472;17.970;2024-03-07T08:49:01;24.92;;;11.85;;
79478;SDS011;68943;49.472;17.970;2024-03-07T08:51:28;25.45;;;11.95;;
79478;SDS011;68943;49.472;17.970;2024-03-07T08:53:54;21.63;;;10.02;;
79478;SDS011;68943;49.472;17.970;2024-03-07T08:56:20;20.00;;;10.10;;
79478;SDS011;68943;49.472;17.970;2024-03-07T08:58:47;18.38;;;10.07;;
79478;SDS011;68943;49.472;17.970;2024-03-07T09:01:13;18.88;;;8.60;;
79478;SDS011;68943;49.472;17.970;2024-03-07T09:03:39;14.68;;;7.50;;
79478;SDS011;68943;49.472;17.970;2024-03-07T09:06:05;20.30;;;9.70;;
79478;SDS011;68943;49.472;17.970;2024-03-07T09:08:33;18.13;;;9.23;;
79478;SDS011;68943;49.472;17.970;2024-03-07T09:10:59;16.15;;;8.30;;
79478;SDS011;68943;49.472;17.970;2024-03-07T09:13:25;18.23;;;7.90;;
79478;SDS011;68943;49.472;17.970;2024-03-07T09:15:52;23.60;;;11.80;;
79478;SDS011;68943;49.472;17.970;2024-03-07T09:18:18;17.02;;;8.50;;
79478;SDS011;68943;49.472;17.970;2024-03-07T09:20:44;17.35;;;10.23;;
79478;SDS011;68943;49.472;17.970;2024-03-07T09:23:10;12.65;;;7.43;;
79478;SDS011;68943;49.472;17.970;2024-03-07T09:25:36;30.40;;;14.20;;
79478;SDS011;68943;49.472;17.970;2024-03-07T09:28:04;23.77;;;11.60;;
79478;SDS011;68943;49.472;17.970;2024-03-07T09:30:31;28.63;;;14.45;;
79478;SDS011;68943;49.472;17.970;2024-03-07T09:32:57;37.08;;;16.45;;
79478;SDS011;68943;49.472;17.970;2024-03-07T09:35:24;27.65;;;13.18;;
79478;SDS011;68943;49.472;17.970;2024-03-07T09:37:51;39.03;;;18.25;;
79478;SDS011;68943;49.472;17.970;2024-03-07T09:40:17;29.10;;;13.88;;
79478;SDS011;68943;49.472;17.970;2024-03-07T09:42:44;42.50;;;17.23;;
79478;SDS011;68943;49.472;17.970;2024-03-07T09:45:13;33.20;;;15.55;;
79478;SDS011;68943;49.472;17.970;2024-03-07T09:47:41;45.72;;;19.63;;
79478;SDS011;68943;49.472;17.970;2024-03-07T09:50:11;40.50;;;18.33;;
79478;SDS011;68943;49.472;17.970;2024-03-07T09:52:38;36.15;;;18.35;;
79478;SDS011;68943;49.472;17.970;2024-03-07T09:55:04;31.05;;;13.60;;
79478;SDS011;68943;49.472;17.970;2024-03-07T09:57:33;32.00;;;14.82;;
79478;SDS011;68943;49.472;17.970;2024-03-07T10:00:00;29.90;;;13.90;;
79478;SDS011;68943;49.472;17.970;2024-03-07T10:02:28;18.92;;;8.65;;
79478;SDS011;68943;49.472;17.970;2024-03-07T10:04:55;24.05;;;12.48;;
79478;SDS011;68943;49.472;17.970;2024-03-07T10:07:22;32.25;;;15.07;;
79478;SDS011;68943;49.472;17.970;2024-03-07T10:09:49;31.52;;;16.63;;
79478;SDS011;68943;49.472;17.970;2024-03-07T10:12:17;36.67;;;15.80;;
79478;SDS011;68943;49.472;17.970;2024-03-07T10:14:50;27.80;;;13.25;;
79478;SDS011;68943;49.472;17.970;2024-03-07T10:17:17;24.92;;;12.93;;
79478;SDS011;68943;49.472;17.970;2024-03-07T10:19:46;19.38;;;9.25;;
79478;SDS011;68943;49.472;17.970;2024-03-07T10:22:14;15.95;;;8.23;;
79478;SDS011;68943;49.472;17.970;2024-03-07T10:24:41;25.20;;;12.30;;
79478;SDS011;68943;49.472;17.970;2024-03-07T10:27:16;22.42;;;10.63;;
79478;SDS011;68943;49.472;17.970;2024-03-07T10:29:45;24.40;;;12.65;;
79478;SDS011;68943;49.472;17.970;2024-03-07T10:32:12;27.13;;;11.55;;
79478;SDS011;68943;49.472;17.970;2024-03-07T10:34:38;28.60;;;12.43;;
79478;SDS011;68943;49.472;17.970;2024-03-07T10:37:04;18.33;;;9.02;;
79478;SDS011;68943;49.472;17.970;2024-03-07T10:42:00;27.73;;;11.55;;
79478;SDS011;68943;49.472;17.970;2024-03-07T10:44:30;26.17;;;13.30;;
79478;SDS011;68943;49.472;17.970;2024-03-07T10:46:58;25.25;;;12.05;;
79478;SDS011;68943;49.472;17.970;2024-03-07T10:49:28;33.92;;;16.27;;
79478;SDS011;68943;49.472;17.970;2024-03-07T10:52:10;22.13;;;11.38;;
79478;SDS011;68943;49.472;17.970;2024-03-07T10:54:42;20.92;;;9.98;;
79478;SDS011;68943;49.472;17.970;2024-03-07T11:00:02;27.38;;;13.88;;
79478;SDS011;68943;49.472;17.970;2024-03-07T11:05:14;25.20;;;12.57;;
79478;SDS011;68943;49.472;17.970;2024-03-07T11:07:41;20.75;;;10.07;;
79478;SDS011;68943;49.472;17.970;2024-03-07T11:10:07;25.80;;;12.27;;
79478;SDS011;68943;49.472;17.970;2024-03-07T11:12:38;28.67;;;13.85;;
79478;SDS011;68943;49.472;17.970;2024-03-07T11:15:04;27.48;;;12.45;;
79478;SDS011;68943;49.472;17.970;2024-03-07T11:17:32;24.60;;;12.80;;
79478;SDS011;68943;49.472;17.970;2024-03-07T11:22:44;35.13;;;13.32;;
79478;SDS011;68943;49.472;17.970;2024-03-07T11:25:11;21.77;;;9.88;;
79478;SDS011;68943;49.472;17.970;2024-03-07T11:27:37;29.13;;;13.00;;
79478;SDS011;68943;49.472;17.970;2024-03-07T11:30:07;27.70;;;12.75;;
79478;SDS011;68943;49.472;17.970;2024-03-07T11:32:34;29.52;;;12.82;;
79478;SDS011;68943;49.472;17.970;2024-03-07T11:35:03;31.45;;;14.75;;
79478;SDS011;68943;49.472;17.970;2024-03-07T11:37:41;29.98;;;14.73;;
79478;SDS011;68943;49.472;17.970;2024-03-07T11:42:49;33.55;;;14.07;;
79478;SDS011;68943;49.472;17.970;2024-03-07T11:45:15;28.77;;;13.00;;
79478;SDS011;68943;49.472;17.970;2024-03-07T11:47:53;35.10;;;15.18;;
79478;SDS011;68943;49.472;17.970;2024-03-07T11:50:25;28.35;;;13.05;;
79478;SDS011;68943;49.472;17.970;2024-03-07T11:52:52;28.92;;;13.80;;
79478;SDS011;68943;49.472;17.970;2024-03-07T11:55:19;34.30;;;14.73;;
79478;SDS011;68943;49.472;17.970;2024-03-07T11:57:46;34.38;;;14.25;;
79478;SDS011;68943;49.472;17.970;2024-03-07T12:00:13;32.10;;;14.93;;
79478;SDS011;68943;49.472;17.970;2024-03-07T12:02:41;41.30;;;18.33;;
79478;SDS011;68943;49.472;17.970;2024-03-07T12:05:10;38.83;;;18.00;;
79478;SDS011;68943;49.472;17.970;2024-03-07T12:07:41;37.47;;;15.43;;
79478;SDS011;68943;49.472;17.970;2024-03-07T12:10:08;51.63;;;23.38;;
79478;SDS011;68943;49.472;17.970;2024-03-07T12:12:35;37.70;;;16.27;;
79478;SDS011;68943;49.472;17.970;2024-03-07T12:15:03;26.73;;;12.75;;
79478;SDS011;68943;49.472;17.970;2024-03-07T12:17:35;33.25;;;14.02;;
79478;SDS011;68943;49.472;17.970;2024-03-07T12:20:02;36.40;;;15.88;;
79478;SDS011;68943;49.472;17.970;2024-03-07T12:22:48;27.85;;;13.52;;
79478;SDS011;68943;49.472;17.970;2024-03-07T12:25:17;37.17;;;16.60;;
79478;SDS011;68943;49.472;17.970;2024-03-07T12:27:47;28.48;;;14.90;;
79478;SDS011;68943;49.472;17.970;2024-03-07T12:30:16;28.50;;;13.10;;
79478;SDS011;68943;49.472;17.970;2024-03-07T12:32:51;26.13;;;13.05;;
79478;SDS011;68943;49.472;17.970;2024-03-07T12:35:17;27.88;;;11.70;;
79478;SDS011;68943;49.472;17.970;2024-03-07T12:37:43;28.40;;;11.50;;
79478;SDS011;68943;49.472;17.970;2024-03-07T12:40:13;33.97;;;16.35;;
79478;SDS011;68943;49.472;17.970;2024-03-07T12:42:51;29.10;;;12.93;;
79478;SDS011;68943;49.472;17.970;2024-03-07T12:45:20;27.02;;;11.73;;
79478;SDS011;68943;49.472;17.970;2024-03-07T12:47:47;31.10;;;14.82;;
79478;SDS011;68943;49.472;17.970;2024-03-07T12:50:18;32.25;;;13.77;;
79478;SDS011;68943;49.472;17.970;2024-03-07T12:52:47;32.38;;;14.00;;
79478;SDS011;68943;49.472;17.970;2024-03-07T12:55:17;39.53;;;17.08;;
79478;SDS011;68943;49.472;17.970;2024-03-07T12:57:44;42.67;;;16.52;;
79478;SDS011;68943;49.472;17.970;2024-03-07T13:00:11;31.38;;;15.13;;
79478;SDS011;68943;49.472;17.970;2024-03-07T13:02:44;25.63;;;12.15;;
79478;SDS011;68943;49.472;17.970;2024-03-07T13:05:10;38.70;;;16.38;;
79478;SDS011;68943;49.472;17.970;2024-03-07T13:07:51;31.63;;;15.63;;
79478;SDS011;68943;49.472;17.970;2024-03-07T13:10:17;33.42;;;15.73;;
79478;SDS011;68943;49.472;17.970;2024-03-07T13:12:45;33.58;;;15.52;;
79478;SDS011;68943;49.472;17.970;2024-03-07T13:15:13;30.77;;;14.43;;
79478;SDS011;68943;49.472;17.970;2024-03-07T13:17:40;30.17;;;13.75;;
79478;SDS011;68943;49.472;17.970;2024-03-07T13:20:08;31.63;;;13.77;;
79478;SDS011;68943;49.472;17.970;2024-03-07T13:25:17;33.95;;;15.30;;
79478;SDS011;68943;49.472;17.970;2024-03-07T13:27:57;30.00;;;14.93;;
79478;SDS011;68943;49.472;17.970;2024-03-07T13:30:25;36.03;;;17.73;;
79478;SDS011;68943;49.472;17.970;2024-03-07T13:35:21;29.67;;;12.40;;
79478;SDS011;68943;49.472;17.970;2024-03-07T13:37:47;40.58;;;18.63;;
79478;SDS011;68943;49.472;17.970;2024-03-07T13:40:14;33.13;;;14.70;;
79478;SDS011;68943;49.472;17.970;2024-03-07T13:42:54;36.83;;;15.52;;
79478;SDS011;68943;49.472;17.970;2024-03-07T13:45:26;32.38;;;15.88;;
79478;SDS011;68943;49.472;17.970;2024-03-07T13:47:54;32.83;;;15.05;;
79478;SDS011;68943;49.472;17.970;2024-03-07T13:50:23;32.88;;;15.68;;
79478;SDS011;68943;49.472;17.970;2024-03-07T13:52:52;39.95;;;17.05;;
79478;SDS011;68943;49.472;17.970;2024-03-07T13:55:45;31.30;;;15.05;;
79478;SDS011;68943;49.472;17.970;2024-03-07T13:58:24;38.83;;;17.35;;
79478;SDS011;68943;49.472;17.970;2024-03-07T14:01:06;43.35;;;18.92;;
79478;SDS011;68943;49.472;17.970;2024-03-07T14:06:31;24.73;;;12.30;;
79478;SDS011;68943;49.472;17.970;2024-03-07T14:09:23;20.85;;;9.70;;
79478;SDS011;68943;49.472;17.970;2024-03-07T14:14:54;32.88;;;12.45;;
79478;SDS011;68943;49.472;17.970;2024-03-07T14:17:59;44.30;;;20.45;;
79478;SDS011;68943;49.472;17.970;2024-03-07T14:31:11;36.83;;;17.05;;
79478;SDS011;68943;49.472;17.970;2024-03-07T14:36:40;41.42;;;17.92;;
79478;SDS011;68943;49.472;17.970;2024-03-07T14:39:09;33.75;;;13.75;;
79478;SDS011;68943;49.472;17.970;2024-03-07T14:44:08;45.63;;;19.77;;
79478;SDS011;68943;49.472;17.970;2024-03-07T14:46:35;35.90;;;13.82;;
79478;SDS011;68943;49.472;17.970;2024-03-07T14:49:02;24.90;;;11.98;;
79478;SDS011;68943;49.472;17.970;2024-03-07T14:51:29;38.95;;;18.83;;
79478;SDS011;68943;49.472;17.970;2024-03-07T14:53:55;47.65;;;21.38;;
79478;SDS011;68943;49.472;17.970;2024-03-07T14:56:22;42.72;;;18.35;;
79478;SDS011;68943;49.472;17.970;2024-03-07T14:58:48;41.47;;;17.70;;
79478;SDS011;68943;49.472;17.970;2024-03-07T15:01:14;40.00;;;17.42;;
79478;SDS011;68943;49.472;17.970;2024-03-07T15:03:41;43.53;;;18.48;;